createdAt,value
2018-09-06T00:01:20.712Z,16.93
2018-09-06T00:03:49.301Z,17.73
2018-09-06T00:06:17.932Z,15.83
2018-09-06T00:08:46.587Z,17.62
2018-09-06T00:11:15.165Z,16.02
2018-09-06T00:13:43.741Z,17.92
2018-09-06T00:16:12.314Z,24.20
2018-09-06T00:18:40.884Z,15.65
2018-09-06T00:21:09.509Z,15.88
2018-09-06T00:23:38.106Z,14.10
2018-09-06T00:26:06.712Z,12.93
2018-09-06T00:28:35.280Z,14.28
2018-09-06T00:31:03.877Z,18.82
2018-09-06T00:33:32.498Z,15.50
2018-09-06T00:36:01.098Z,17.70
2018-09-06T00:38:29.719Z,13.95
2018-09-06T00:40:58.289Z,13.15
2018-09-06T00:43:26.849Z,18.23
2018-09-06T00:45:55.458Z,16.07
2018-09-06T00:48:24.092Z,15.43
2018-09-06T00:50:52.657Z,14.98
2018-09-06T00:53:24.107Z,13.20
2018-09-06T00:55:52.686Z,17.87
2018-09-06T00:58:21.257Z,14.00
2018-09-06T01:00:49.810Z,14.73
2018-09-06T01:03:18.396Z,16.40
2018-09-06T01:05:46.927Z,13.68
2018-09-06T01:08:15.494Z,23.50
2018-09-06T01:10:44.066Z,14.50
2018-09-06T01:13:12.605Z,15.30
2018-09-06T01:15:41.150Z,13.80
2018-09-06T01:18:09.761Z,18.50
2018-09-06T01:20:38.357Z,12.30
2018-09-06T01:23:07.046Z,15.88
2018-09-06T01:25:40.968Z,10.53
2018-09-06T01:28:09.547Z,10.85
2018-09-06T01:30:38.119Z,12.60
2018-09-06T01:33:06.701Z,12.55
2018-09-06T01:35:35.268Z,11.78
2018-09-06T01:38:03.817Z,16.48
2018-09-06T01:40:32.394Z,14.63
2018-09-06T01:43:00.987Z,18.73
2018-09-06T01:45:29.572Z,20.43
2018-09-06T01:47:58.183Z,14.83
2018-09-06T01:50:26.720Z,13.93
2018-09-06T01:52:55.325Z,16.75
2018-09-06T01:55:23.893Z,13.98
2018-09-06T01:57:52.450Z,15.72
2018-09-06T02:00:20.966Z,13.22
2018-09-06T02:02:49.507Z,20.77
2018-09-06T02:05:23.266Z,20.40
2018-09-06T02:07:51.865Z,17.60
2018-09-06T02:10:20.423Z,25.55
2018-09-06T02:12:49.009Z,30.23
2018-09-06T02:15:17.556Z,15.63
2018-09-06T02:17:46.089Z,16.95
2018-09-06T02:20:14.643Z,19.20
2018-09-06T02:22:43.248Z,20.90
2018-09-06T02:25:11.882Z,14.28
2018-09-06T02:27:40.492Z,24.85
2018-09-06T02:30:09.038Z,24.67
2018-09-06T02:32:37.621Z,14.80
2018-09-06T02:35:06.232Z,16.55
2018-09-06T02:37:34.792Z,16.52
2018-09-06T02:40:03.500Z,20.80
2018-09-06T02:42:32.058Z,16.15
2018-09-06T02:45:00.743Z,15.95
2018-09-06T02:47:29.468Z,15.70
2018-09-06T02:50:03.263Z,14.87
2018-09-06T02:52:31.795Z,20.52
2018-09-06T02:55:00.323Z,17.65
2018-09-06T02:57:28.866Z,15.90
2018-09-06T02:59:57.437Z,20.37
2018-09-06T03:02:26.022Z,18.27
2018-09-06T03:04:54.580Z,18.17
2018-09-06T03:07:23.136Z,15.80
2018-09-06T03:09:51.674Z,19.12
2018-09-06T03:12:20.271Z,14.00
2018-09-06T03:14:48.877Z,18.15
2018-09-06T03:17:17.481Z,17.07
2018-09-06T03:19:46.066Z,18.65
2018-09-06T03:22:14.609Z,18.82
2018-09-06T03:24:43.153Z,15.90
2018-09-06T03:27:11.680Z,19.67
2018-09-06T03:29:40.235Z,14.70
2018-09-06T03:32:08.804Z,17.27
2018-09-06T03:34:37.365Z,17.05
2018-09-06T03:37:05.943Z,16.80
2018-09-06T03:39:34.539Z,15.28
2018-09-06T03:42:03.136Z,20.25
2018-09-06T03:44:31.792Z,15.98
2018-09-06T03:47:00.389Z,23.60
2018-09-06T03:49:28.949Z,17.82
2018-09-06T03:51:57.635Z,20.85
2018-09-06T03:54:26.204Z,22.20
2018-09-06T03:56:54.748Z,17.02
2018-09-06T03:59:23.328Z,16.62
2018-09-06T04:01:51.924Z,15.80
2018-09-06T04:04:20.493Z,21.45
2018-09-06T04:06:49.039Z,17.80
2018-09-06T04:09:17.632Z,15.60
2018-09-06T04:11:46.179Z,14.83
2018-09-06T04:14:14.718Z,18.42
2018-09-06T04:16:43.281Z,19.57
2018-09-06T04:19:11.864Z,19.10
2018-09-06T04:21:40.841Z,16.70
2018-09-06T04:24:09.570Z,23.30
2018-09-06T04:26:38.133Z,16.25
2018-09-06T04:29:06.663Z,20.70
2018-09-06T04:31:35.227Z,31.02
2018-09-06T04:34:03.783Z,31.65
2018-09-06T04:36:32.323Z,32.08
2018-09-06T04:39:00.880Z,26.23
2018-09-06T04:41:29.467Z,24.82
2018-09-06T04:43:58.071Z,24.77
2018-09-06T04:46:26.638Z,35.45
2018-09-06T04:48:55.184Z,26.57
2018-09-06T04:51:23.823Z,29.65
2018-09-06T04:53:52.380Z,24.65
2018-09-06T04:56:20.936Z,23.27
2018-09-06T04:58:49.561Z,23.20
2018-09-06T05:01:18.151Z,20.97
2018-09-06T05:03:46.697Z,22.05
2018-09-06T05:06:15.565Z,19.50
2018-09-06T05:08:44.121Z,21.02
2018-09-06T05:11:12.690Z,35.92
2018-09-06T05:13:41.247Z,30.68
2018-09-06T05:16:09.783Z,28.00
2018-09-06T05:18:38.381Z,26.90
2018-09-06T05:21:06.979Z,26.02
2018-09-06T05:23:35.507Z,24.23
2018-09-06T05:26:04.065Z,26.12
2018-09-06T05:28:32.619Z,23.52
2018-09-06T05:31:01.216Z,18.92
2018-09-06T05:33:29.778Z,19.40
2018-09-06T05:35:58.359Z,21.75
2018-09-06T05:38:26.976Z,25.65
2018-09-06T05:40:55.551Z,23.25
2018-09-06T05:43:24.123Z,19.82
2018-09-06T05:45:52.733Z,19.23
2018-09-06T05:48:21.302Z,24.32
2018-09-06T05:50:49.896Z,24.15
2018-09-06T05:53:18.501Z,26.17
2018-09-06T05:55:47.073Z,30.82
2018-09-06T05:58:15.653Z,53.70
2018-09-06T06:00:46.838Z,57.90
2018-09-06T06:03:15.476Z,56.88
2018-09-06T06:05:44.089Z,57.20
2018-09-06T06:08:23.910Z,30.80
2018-09-06T06:10:52.566Z,28.23
2018-09-06T06:13:21.209Z,28.25
2018-09-06T06:15:49.776Z,25.75
2018-09-06T06:18:18.404Z,25.30
2018-09-06T06:20:46.955Z,22.65
2018-09-06T06:23:15.524Z,24.50
2018-09-06T06:25:44.099Z,24.37
2018-09-06T06:28:12.657Z,23.52
2018-09-06T06:30:41.181Z,26.87
2018-09-06T06:33:09.741Z,24.45
2018-09-06T06:35:38.402Z,24.12
2018-09-06T06:38:06.966Z,22.42
2018-09-06T06:40:35.541Z,27.82
2018-09-06T06:43:04.073Z,24.70
2018-09-06T06:45:32.635Z,23.83
2018-09-06T06:48:03.890Z,24.77
2018-09-06T06:50:32.805Z,21.27
2018-09-06T06:53:01.443Z,17.75
2018-09-06T06:55:30.039Z,16.05
2018-09-06T06:57:58.608Z,19.23
2018-09-06T07:00:27.206Z,18.75
2018-09-06T07:02:55.775Z,22.67
2018-09-06T07:05:24.328Z,13.25
2018-09-06T07:07:52.876Z,15.03
2018-09-06T07:10:21.439Z,20.57
2018-09-06T07:12:50.083Z,21.12
2018-09-06T07:15:18.657Z,12.82
2018-09-06T07:17:47.200Z,13.83
2018-09-06T07:20:15.802Z,12.70
2018-09-06T07:22:44.348Z,16.73
2018-09-06T07:25:12.969Z,19.43
2018-09-06T07:27:41.518Z,11.30
2018-09-06T07:30:10.107Z,9.98
2018-09-06T07:32:38.703Z,12.17
2018-09-06T07:35:07.421Z,12.07
2018-09-06T07:37:36.012Z,13.13
2018-09-06T07:40:04.669Z,16.23
2018-09-06T07:42:33.216Z,13.73
2018-09-06T07:45:01.833Z,13.67
2018-09-06T07:47:30.388Z,12.20
2018-09-06T07:49:59.251Z,23.60
2018-09-06T07:52:27.957Z,17.93
2018-09-06T07:54:56.460Z,17.73
2018-09-06T07:57:25.057Z,13.00
2018-09-06T07:59:53.725Z,14.57
2018-09-06T08:02:22.253Z,11.97
2018-09-06T08:04:50.793Z,9.10
2018-09-06T08:07:19.341Z,15.23
2018-09-06T08:09:47.903Z,8.90
2018-09-06T08:12:16.544Z,10.10
2018-09-06T08:14:45.176Z,9.40
2018-09-06T08:17:13.778Z,13.00
2018-09-06T08:19:42.352Z,9.03
2018-09-06T08:22:10.909Z,12.53
2018-09-06T08:24:39.495Z,11.07
2018-09-06T08:27:08.230Z,8.73
2018-09-06T08:29:36.772Z,11.33
2018-09-06T08:32:05.336Z,11.63
2018-09-06T08:34:34.407Z,8.70
2018-09-06T08:37:02.998Z,10.93
2018-09-06T08:39:31.540Z,7.93
2018-09-06T08:42:00.084Z,11.53
2018-09-06T08:44:28.729Z,9.07
2018-09-06T08:46:57.312Z,9.63
2018-09-06T08:49:25.870Z,9.60
2018-09-06T08:51:54.429Z,9.53
2018-09-06T08:54:22.988Z,9.73
2018-09-06T08:56:51.590Z,8.60
2018-09-06T08:59:20.387Z,6.53
2018-09-06T09:01:48.953Z,9.47
2018-09-06T09:04:17.551Z,8.10
2018-09-06T09:06:46.104Z,9.33
2018-09-06T09:09:15.534Z,5.60
2018-09-06T09:11:44.214Z,8.10
2018-09-06T09:14:12.781Z,9.77
2018-09-06T09:16:41.473Z,7.10
2018-09-06T09:19:10.091Z,6.60
2018-09-06T09:21:38.747Z,7.73
2018-09-06T09:24:07.335Z,5.87
2018-09-06T09:26:36.659Z,6.27
2018-09-06T09:29:05.296Z,6.87
2018-09-06T09:31:33.836Z,9.53
2018-09-06T09:34:02.447Z,4.97
2018-09-06T09:36:31.064Z,5.13
2018-09-06T09:38:59.620Z,5.80
2018-09-06T09:41:28.145Z,4.80
2018-09-06T09:43:56.756Z,6.07
2018-09-06T09:48:52.992Z,5.30
2018-09-06T09:51:21.581Z,5.00
2018-09-06T09:53:50.195Z,4.90
2018-09-06T09:56:18.737Z,6.00
2018-09-06T09:58:47.356Z,3.83
2018-09-06T10:01:15.881Z,5.73
2018-09-06T10:08:24.940Z,5.33
2018-09-06T10:10:53.571Z,6.27
2018-09-06T10:13:22.189Z,5.73
2018-09-06T10:15:50.725Z,7.43
2018-09-06T10:18:19.409Z,5.20
2018-09-06T10:20:47.944Z,5.77
2018-09-06T10:23:16.543Z,7.30
2018-09-06T10:25:45.093Z,7.23
2018-09-06T10:28:13.779Z,7.93
2018-09-06T10:30:42.402Z,7.07
2018-09-06T10:33:11.030Z,5.57
2018-09-06T10:35:39.620Z,4.93
2018-09-06T10:38:08.164Z,5.37
2018-09-06T10:40:36.872Z,7.27
2018-09-06T10:43:07.682Z,7.00
2018-09-06T10:45:36.253Z,10.87
2018-09-06T10:48:04.871Z,9.83
2018-09-06T10:50:33.449Z,10.33
2018-09-06T10:53:01.969Z,7.23
2018-09-06T10:55:30.480Z,5.50
2018-09-06T10:57:59.067Z,7.73
2018-09-06T11:00:29.186Z,15.03
2018-09-06T11:02:58.604Z,5.23
2018-09-06T11:05:27.191Z,6.03
2018-09-06T11:07:55.848Z,9.20
2018-09-06T11:10:24.459Z,6.63
2018-09-06T11:12:53.006Z,7.00
2018-09-06T11:15:21.597Z,15.33
2018-09-06T11:17:50.129Z,5.10
2018-09-06T11:20:18.715Z,14.50
2018-09-06T11:22:47.420Z,8.00
2018-09-06T11:25:15.888Z,5.43
2018-09-06T11:27:44.504Z,10.03
2018-09-06T11:30:13.044Z,8.30
2018-09-06T11:32:41.569Z,8.80
2018-09-06T11:35:10.091Z,5.33
2018-09-06T11:37:38.624Z,6.70
2018-09-06T11:40:07.328Z,7.63
2018-09-06T11:42:35.843Z,7.20
2018-09-06T11:45:04.622Z,10.60
2018-09-06T11:47:33.223Z,8.50
2018-09-06T11:50:01.764Z,5.93
2018-09-06T11:52:30.328Z,7.40
2018-09-06T11:54:58.895Z,5.77
2018-09-06T11:57:27.515Z,7.70
2018-09-06T11:59:56.076Z,6.33
2018-09-06T12:02:24.703Z,5.90
2018-09-06T12:04:53.268Z,10.13
2018-09-06T12:07:21.870Z,9.30
2018-09-06T12:09:50.138Z,6.97
2018-09-06T12:12:18.711Z,5.97
2018-09-06T12:14:47.339Z,6.50
2018-09-06T12:17:15.918Z,7.13
2018-09-06T12:19:44.597Z,7.10
2018-09-06T12:22:13.220Z,6.10
2018-09-06T12:24:42.283Z,5.87
2018-09-06T12:27:11.271Z,7.43
2018-09-06T12:29:39.864Z,8.93
2018-09-06T12:32:08.778Z,6.10
2018-09-06T12:34:38.816Z,7.60
2018-09-06T12:37:12.889Z,6.63
2018-09-06T12:39:43.119Z,6.47
2018-09-06T12:42:11.978Z,6.83
2018-09-06T12:44:40.886Z,5.57
2018-09-06T12:47:09.595Z,13.70
2018-09-06T12:49:38.261Z,8.80
2018-09-06T12:52:06.871Z,6.20
2018-09-06T12:54:36.730Z,7.53
2018-09-06T12:57:05.430Z,6.30
2018-09-06T12:59:33.994Z,10.77
2018-09-06T13:02:02.538Z,7.13
2018-09-06T13:04:31.100Z,11.43
2018-09-06T13:06:59.626Z,6.87
2018-09-06T13:09:28.186Z,8.00
2018-09-06T13:11:57.784Z,6.37
2018-09-06T13:14:26.532Z,10.43
2018-09-06T13:16:55.696Z,7.50
2018-09-06T13:19:24.302Z,6.30
2018-09-06T13:21:53.025Z,6.40
2018-09-06T13:24:21.662Z,9.93
2018-09-06T13:26:50.249Z,8.80
2018-09-06T13:29:18.862Z,7.33
2018-09-06T13:31:47.502Z,5.90
2018-09-06T13:34:16.048Z,6.27
2018-09-06T13:36:44.608Z,7.93
2018-09-06T13:39:13.334Z,10.43
2018-09-06T13:41:42.282Z,8.33
2018-09-06T13:44:11.539Z,5.93
2018-09-06T13:46:40.141Z,6.27
2018-09-06T13:49:08.713Z,6.70
2018-09-06T13:51:37.321Z,10.73
2018-09-06T13:54:05.909Z,8.03
2018-09-06T13:56:34.591Z,5.97
2018-09-06T13:59:03.295Z,7.73
2018-09-06T14:01:31.870Z,6.93
2018-09-06T14:04:00.580Z,5.70
2018-09-06T14:06:29.246Z,6.30
2018-09-06T14:08:58.548Z,14.10
2018-09-06T14:11:27.093Z,8.30
2018-09-06T14:13:55.726Z,11.40
2018-09-06T14:16:24.363Z,6.80
2018-09-06T14:18:52.970Z,6.90
2018-09-06T14:21:21.583Z,11.00
2018-09-06T14:23:50.189Z,6.00
2018-09-06T14:26:18.737Z,9.47
2018-09-06T14:28:47.375Z,7.17
2018-09-06T14:31:15.934Z,6.13
2018-09-06T14:33:44.529Z,7.33
2018-09-06T14:36:13.103Z,13.83
2018-09-06T14:38:41.788Z,7.07
2018-09-06T14:41:10.364Z,7.30
2018-09-06T14:43:38.921Z,7.13
2018-09-06T14:46:07.525Z,6.93
2018-09-06T14:48:36.085Z,6.70
2018-09-06T14:51:04.704Z,6.70
2018-09-06T14:53:33.307Z,6.70
2018-09-06T14:56:01.902Z,6.00
2018-09-06T14:58:30.464Z,6.70
2018-09-06T15:00:59.030Z,5.83
2018-09-06T15:03:27.561Z,6.40
2018-09-06T15:05:56.132Z,13.33
2018-09-06T15:08:24.679Z,7.93
2018-09-06T15:10:53.227Z,11.73
2018-09-06T15:13:21.917Z,6.13
2018-09-06T15:15:50.482Z,9.27
2018-09-06T15:18:19.078Z,7.00
2018-09-06T15:20:47.626Z,6.43
2018-09-06T15:23:16.133Z,6.20
2018-09-06T15:25:44.746Z,8.10
2018-09-06T15:28:13.429Z,7.50
2018-09-06T15:30:42.096Z,6.30
2018-09-06T15:33:10.700Z,6.07
2018-09-06T15:35:39.266Z,9.60
2018-09-06T15:38:07.929Z,8.37
2018-09-06T15:40:36.460Z,6.30
2018-09-06T15:43:05.074Z,5.43
2018-09-06T15:45:33.682Z,8.10
2018-09-06T15:48:02.215Z,8.80
2018-09-06T15:50:30.768Z,6.63
2018-09-06T15:52:59.447Z,11.30
2018-09-06T15:55:27.959Z,8.50
2018-09-06T15:57:56.540Z,7.20
2018-09-06T16:00:25.148Z,12.27
2018-09-06T16:02:53.840Z,11.03
2018-09-06T16:05:22.410Z,7.13
2018-09-06T16:07:52.044Z,8.47
2018-09-06T16:10:21.159Z,11.60
2018-09-06T16:12:49.760Z,6.13
2018-09-06T16:15:18.547Z,5.83
2018-09-06T16:17:47.134Z,5.97
2018-09-06T16:20:15.717Z,6.10
2018-09-06T16:22:46.962Z,14.23
2018-09-06T16:25:15.979Z,5.67
2018-09-06T16:27:46.204Z,9.17
2018-09-06T16:30:15.832Z,6.43
2018-09-06T16:32:44.449Z,5.97
2018-09-06T16:35:13.225Z,6.47
2018-09-06T16:37:44.090Z,7.60
2018-09-06T16:40:12.668Z,6.50
2018-09-06T16:45:20.762Z,6.50
2018-09-06T16:47:49.381Z,16.73
2018-09-06T16:50:17.923Z,5.93
2018-09-06T16:52:46.547Z,5.60
2018-09-06T16:55:15.180Z,6.00
2018-09-06T16:57:43.777Z,6.23
2018-09-06T17:00:12.390Z,6.60
2018-09-06T17:02:41.019Z,7.80
2018-09-06T17:05:09.965Z,9.33
2018-09-06T17:07:38.583Z,6.00
2018-09-06T17:10:07.319Z,7.13
2018-09-06T17:12:35.994Z,8.93
2018-09-06T17:15:04.730Z,7.73
2018-09-06T17:17:33.252Z,11.20
2018-09-06T17:20:01.810Z,9.90
2018-09-06T17:22:30.354Z,6.03
2018-09-06T17:24:59.004Z,7.30
2018-09-06T17:27:27.688Z,7.40
2018-09-06T17:29:56.346Z,8.23
2018-09-06T17:32:25.339Z,7.37
2018-09-06T17:34:53.921Z,9.50
2018-09-06T17:37:22.576Z,6.90
2018-09-06T17:39:52.227Z,7.90
2018-09-06T17:42:20.992Z,5.93
2018-09-06T17:44:49.579Z,6.67
2018-09-06T17:47:18.146Z,6.33
2018-09-06T17:49:46.711Z,6.30
2018-09-06T17:52:15.342Z,7.77
2018-09-06T17:54:43.954Z,8.53
2018-09-06T17:57:12.550Z,8.13
2018-09-06T17:59:41.776Z,7.70
2018-09-06T18:02:10.332Z,8.53
2018-09-06T18:04:39.026Z,6.47
2018-09-06T18:07:07.654Z,6.93
2018-09-06T18:09:36.237Z,6.90
2018-09-06T18:12:08.945Z,12.37
2018-09-06T18:14:37.587Z,23.53
2018-09-06T18:17:06.230Z,7.73
2018-09-06T18:19:34.813Z,7.80
2018-09-06T18:22:03.419Z,8.33
2018-09-06T18:24:32.042Z,10.40
2018-09-06T18:27:00.697Z,9.40
2018-09-06T18:29:29.332Z,8.20
2018-09-06T18:31:57.972Z,15.43
2018-09-06T18:34:26.503Z,9.53
2018-09-06T18:36:55.147Z,13.97
2018-09-06T18:39:23.705Z,18.30
2018-09-06T18:41:52.252Z,8.53
2018-09-06T18:44:20.849Z,12.20
2018-09-06T18:46:49.442Z,9.97
2018-09-06T18:49:18.029Z,10.63
2018-09-06T18:51:47.366Z,10.80
2018-09-06T18:54:15.945Z,11.73
2018-09-06T18:56:45.230Z,9.80
2018-09-06T18:59:13.808Z,10.60
2018-09-06T19:01:42.384Z,9.83
2018-09-06T19:04:11.732Z,12.00
2018-09-06T19:06:40.285Z,13.80
2018-09-06T19:09:10.428Z,12.97
2018-09-06T19:11:38.964Z,9.43
2018-09-06T19:14:07.543Z,17.03
2018-09-06T19:16:36.272Z,10.33
2018-09-06T19:19:05.341Z,11.53
2018-09-06T19:21:33.934Z,17.10
2018-09-06T19:24:02.592Z,11.87
2018-09-06T19:26:31.156Z,12.20
2018-09-06T19:28:59.676Z,19.03
2018-09-06T19:31:29.345Z,12.43
2018-09-06T19:33:58.028Z,15.60
2018-09-06T19:36:26.758Z,13.60
2018-09-06T19:38:56.413Z,12.17
2018-09-06T19:41:24.969Z,15.33
2018-09-06T19:43:53.511Z,12.70
2018-09-06T19:46:22.133Z,18.50
2018-09-06T19:48:50.713Z,14.07
2018-09-06T19:51:19.275Z,12.80
2018-09-06T19:53:47.827Z,23.63
2018-09-06T19:56:16.419Z,15.43
2018-09-06T19:58:44.973Z,15.40
2018-09-06T20:01:13.522Z,20.70
2018-09-06T20:03:42.089Z,11.57
2018-09-06T20:06:10.849Z,11.93
2018-09-06T20:08:39.394Z,15.50
2018-09-06T20:11:08.084Z,13.73
2018-09-06T20:13:36.658Z,11.13
2018-09-06T20:16:05.282Z,11.30
2018-09-06T20:18:33.870Z,14.83
2018-09-06T20:21:02.443Z,12.63
2018-09-06T20:23:30.994Z,11.03
2018-09-06T20:25:59.631Z,13.80
2018-09-06T20:28:28.214Z,18.10
2018-09-06T20:30:56.790Z,13.00
2018-09-06T20:33:25.333Z,18.27
2018-09-06T20:35:53.891Z,14.03
2018-09-06T20:38:22.456Z,16.70
2018-09-06T20:40:51.062Z,16.33
2018-09-06T20:43:19.691Z,10.90
2018-09-06T20:45:48.363Z,11.67
2018-09-06T20:48:16.982Z,13.00
2018-09-06T20:50:45.609Z,13.23
2018-09-06T20:53:14.244Z,14.37
2018-09-06T20:55:42.808Z,13.43
2018-09-06T20:58:11.424Z,10.60
2018-09-06T21:00:40.120Z,10.40
2018-09-06T21:03:08.785Z,14.67
2018-09-06T21:05:37.396Z,12.50
2018-09-06T21:08:05.955Z,14.63
2018-09-06T21:10:34.516Z,12.43
2018-09-06T21:13:03.094Z,13.10
2018-09-06T21:15:31.721Z,14.50
2018-09-06T21:18:00.435Z,17.80
2018-09-06T21:20:29.052Z,13.70
2018-09-06T21:22:57.729Z,12.80
2018-09-06T21:25:26.302Z,17.63
2018-09-06T21:27:54.940Z,12.17
2018-09-06T21:30:23.639Z,17.67
2018-09-06T21:32:52.184Z,12.43
2018-09-06T21:35:20.830Z,12.03
2018-09-06T21:37:49.446Z,17.93
2018-09-06T21:40:17.988Z,12.17
2018-09-06T21:42:46.612Z,12.77
2018-09-06T21:45:15.170Z,11.70
2018-09-06T21:47:43.751Z,11.27
2018-09-06T21:50:12.378Z,14.90
2018-09-06T21:52:42.526Z,12.70
2018-09-06T21:55:11.119Z,13.53
2018-09-06T21:57:39.727Z,14.33
2018-09-06T22:00:08.401Z,18.17
2018-09-06T22:02:42.289Z,12.33
2018-09-06T22:05:10.897Z,15.50
2018-09-06T22:07:39.509Z,16.57
2018-09-06T22:10:08.162Z,12.83
2018-09-06T22:12:36.746Z,17.87
2018-09-06T22:15:05.406Z,15.38
2018-09-06T22:17:34.019Z,15.00
2018-09-06T22:20:02.661Z,16.27
2018-09-06T22:22:31.247Z,16.90
2018-09-06T22:24:59.817Z,15.25
2018-09-06T22:27:28.372Z,13.53
2018-09-06T22:29:56.991Z,16.20
2018-09-06T22:32:25.638Z,15.18
2018-09-06T22:34:54.203Z,17.02
2018-09-06T22:37:22.775Z,19.45
2018-09-06T22:39:51.390Z,19.90
2018-09-06T22:42:20.208Z,15.83
2018-09-06T22:44:48.849Z,16.65
2018-09-06T22:47:17.467Z,13.10
2018-09-06T22:49:46.086Z,14.95
2018-09-06T22:52:14.677Z,14.83
2018-09-06T22:54:43.334Z,15.85
2018-09-06T22:57:11.962Z,13.50
2018-09-06T22:59:40.559Z,26.37
2018-09-06T23:02:09.121Z,51.20
2018-09-06T23:04:37.693Z,31.70
2018-09-06T23:07:06.386Z,23.77
2018-09-06T23:09:35.047Z,22.10
2018-09-06T23:12:03.618Z,14.45
2018-09-06T23:14:32.194Z,15.48
2018-09-06T23:17:00.751Z,18.15
2018-09-06T23:19:29.314Z,12.60
2018-09-06T23:21:57.892Z,14.00
2018-09-06T23:24:26.499Z,14.15
2018-09-06T23:26:55.101Z,14.65
2018-09-06T23:29:23.699Z,14.98
2018-09-06T23:31:52.275Z,18.62
2018-09-06T23:34:20.879Z,16.02
2018-09-06T23:36:49.437Z,14.68
2018-09-06T23:39:18.015Z,20.20
2018-09-06T23:41:46.557Z,19.67
2018-09-06T23:44:15.109Z,17.77
2018-09-06T23:46:43.680Z,16.32
2018-09-06T23:49:12.227Z,13.78
2018-09-06T23:51:40.783Z,16.20
2018-09-06T23:54:11.352Z,18.60
2018-09-06T23:56:39.940Z,13.65
2018-09-06T23:59:08.509Z,17.77
